createdAt,value
2018-07-15T00:02:05.293Z,12.17
2018-07-15T00:04:33.662Z,5.87
2018-07-15T00:07:02.053Z,5.50
2018-07-15T00:09:30.406Z,5.33
2018-07-15T00:11:58.798Z,5.27
2018-07-15T00:14:27.157Z,6.50
2018-07-15T00:16:55.569Z,6.13
2018-07-15T00:19:23.913Z,7.20
2018-07-15T00:21:53.134Z,6.23
2018-07-15T00:24:21.505Z,5.90
2018-07-15T00:26:50.074Z,6.20
2018-07-15T00:29:18.417Z,6.07
2018-07-15T00:31:46.805Z,5.70
2018-07-15T00:34:15.168Z,5.83
2018-07-15T00:36:43.569Z,6.67
2018-07-15T00:39:11.911Z,5.87
2018-07-15T00:41:40.369Z,6.10
2018-07-15T00:44:08.741Z,6.97
2018-07-15T00:46:37.093Z,6.77
2018-07-15T00:49:05.446Z,6.53
2018-07-15T00:51:33.838Z,6.80
2018-07-15T00:54:02.462Z,7.20
2018-07-15T00:56:30.829Z,8.07
2018-07-15T00:58:59.209Z,7.47
2018-07-15T01:01:27.587Z,6.47
2018-07-15T01:03:55.990Z,7.17
2018-07-15T01:06:24.437Z,7.17
2018-07-15T01:08:52.869Z,8.80
2018-07-15T01:11:21.306Z,8.30
2018-07-15T01:13:49.694Z,8.17
2018-07-15T01:16:18.061Z,8.17
2018-07-15T01:18:46.443Z,8.27
2018-07-15T01:21:14.866Z,12.17
2018-07-15T01:23:43.249Z,8.07
2018-07-15T01:26:11.638Z,7.90
2018-07-15T01:28:40.022Z,8.30
2018-07-15T01:31:08.412Z,7.90
2018-07-15T01:33:36.786Z,9.20
2018-07-15T01:36:05.181Z,10.00
2018-07-15T01:38:33.558Z,7.90
2018-07-15T01:41:01.970Z,7.50
2018-07-15T01:43:30.405Z,8.67
2018-07-15T01:45:58.762Z,11.53
2018-07-15T01:48:27.149Z,8.70
2018-07-15T01:50:55.538Z,10.00
2018-07-15T01:53:23.918Z,8.90
2018-07-15T01:55:52.306Z,8.87
2018-07-15T01:58:20.694Z,9.07
2018-07-15T02:00:49.065Z,9.30
2018-07-15T02:03:17.454Z,9.73
2018-07-15T02:05:45.818Z,8.63
2018-07-15T02:08:14.366Z,9.23
2018-07-15T02:10:42.726Z,10.20
2018-07-15T02:13:11.117Z,9.63
2018-07-15T02:15:39.497Z,10.03
2018-07-15T02:18:07.922Z,10.77
2018-07-15T02:20:36.305Z,8.67
2018-07-15T02:23:04.701Z,9.40
2018-07-15T02:25:33.093Z,10.10
2018-07-15T02:28:01.477Z,14.47
2018-07-15T02:30:29.881Z,10.37
2018-07-15T02:32:58.270Z,10.53
2018-07-15T02:35:26.678Z,10.20
2018-07-15T02:37:55.135Z,9.00
2018-07-15T02:40:23.509Z,9.53
2018-07-15T02:42:51.945Z,9.87
2018-07-15T02:45:20.362Z,10.40
2018-07-15T02:47:48.754Z,10.10
2018-07-15T02:50:17.129Z,10.30
2018-07-15T02:52:45.515Z,9.70
2018-07-15T02:55:13.969Z,8.83
2018-07-15T02:57:42.329Z,10.50
2018-07-15T03:00:10.709Z,10.30
2018-07-15T03:02:39.078Z,10.30
2018-07-15T03:05:07.487Z,9.30
2018-07-15T03:07:35.841Z,12.80
2018-07-15T03:10:04.262Z,10.43
2018-07-15T03:12:32.621Z,11.13
2018-07-15T03:15:01.625Z,11.13
2018-07-15T03:17:30.034Z,10.33
2018-07-15T03:19:58.415Z,9.80
2018-07-15T03:22:26.754Z,9.80
2018-07-15T03:24:55.130Z,12.73
2018-07-15T03:27:23.482Z,10.70
2018-07-15T03:29:51.856Z,10.13
2018-07-15T03:32:20.221Z,11.30
2018-07-15T03:34:48.589Z,11.90
2018-07-15T03:37:16.949Z,10.97
2018-07-15T03:39:45.321Z,10.47
2018-07-15T03:42:13.689Z,11.37
2018-07-15T03:44:42.077Z,12.00
2018-07-15T03:47:10.425Z,10.80
2018-07-15T03:49:38.817Z,9.97
2018-07-15T03:52:07.222Z,11.00
2018-07-15T03:54:35.622Z,12.87
2018-07-15T03:57:04.022Z,10.73
2018-07-15T03:59:32.402Z,10.17
2018-07-15T04:02:00.926Z,10.30
2018-07-15T04:04:29.309Z,11.80
2018-07-15T04:06:57.666Z,10.40
2018-07-15T04:09:26.044Z,11.20
2018-07-15T04:11:54.394Z,10.83
2018-07-15T04:14:22.776Z,12.53
2018-07-15T04:16:51.137Z,11.13
2018-07-15T04:19:19.520Z,10.00
2018-07-15T04:21:47.869Z,10.97
2018-07-15T04:24:16.402Z,10.87
2018-07-15T04:26:44.751Z,9.73
2018-07-15T04:29:13.150Z,9.70
2018-07-15T04:31:41.501Z,10.60
2018-07-15T04:34:09.894Z,10.27
2018-07-15T04:36:38.257Z,10.97
2018-07-15T04:39:07.834Z,11.13
2018-07-15T04:41:36.206Z,9.30
2018-07-15T04:44:04.626Z,12.77
2018-07-15T04:46:32.973Z,9.83
2018-07-15T04:49:01.444Z,9.30
2018-07-15T04:51:29.809Z,10.93
2018-07-15T04:53:58.181Z,12.33
2018-07-15T04:56:26.549Z,11.47
2018-07-15T04:58:54.937Z,10.93
2018-07-15T05:01:23.445Z,10.23
2018-07-15T05:03:51.850Z,10.70
2018-07-15T05:06:20.237Z,10.20
2018-07-15T05:08:48.575Z,9.53
2018-07-15T05:11:17.022Z,11.00
2018-07-15T05:13:45.321Z,10.40
2018-07-15T05:16:13.694Z,12.57
2018-07-15T05:18:42.068Z,10.00
2018-07-15T05:21:10.433Z,9.70
2018-07-15T05:23:38.793Z,12.10
2018-07-15T05:26:07.158Z,9.77
2018-07-15T05:28:35.511Z,10.57
2018-07-15T05:31:03.881Z,9.67
2018-07-15T05:33:32.250Z,8.90
2018-07-15T05:36:00.633Z,9.40
2018-07-15T05:38:29.006Z,9.37
2018-07-15T05:40:57.397Z,10.33
2018-07-15T05:43:25.773Z,9.53
2018-07-15T05:45:54.140Z,9.10
2018-07-15T05:48:22.501Z,9.50
2018-07-15T05:50:50.896Z,9.27
2018-07-15T05:53:19.245Z,10.50
2018-07-15T05:55:47.858Z,8.77
2018-07-15T05:58:16.277Z,9.13
2018-07-15T06:00:44.690Z,8.13
2018-07-15T06:03:13.128Z,7.87
2018-07-15T06:05:41.682Z,9.03
2018-07-15T06:08:10.086Z,7.43
2018-07-15T06:10:38.525Z,8.80
2018-07-15T06:13:06.926Z,9.20
2018-07-15T06:15:35.326Z,8.00
2018-07-15T06:18:03.835Z,7.60
2018-07-15T06:20:32.193Z,7.60
2018-07-15T06:23:00.664Z,7.27
2018-07-15T06:25:29.109Z,7.63
2018-07-15T06:27:57.497Z,7.27
2018-07-15T06:30:25.901Z,7.40
2018-07-15T06:32:54.261Z,7.33
2018-07-15T06:35:22.691Z,7.33
2018-07-15T06:37:51.318Z,8.63
2018-07-15T06:40:19.714Z,8.43
2018-07-15T06:42:48.078Z,7.63
2018-07-15T06:45:16.460Z,8.80
2018-07-15T06:47:44.846Z,7.30
2018-07-15T06:50:13.240Z,6.93
2018-07-15T06:52:41.622Z,7.93
2018-07-15T06:55:10.064Z,8.27
2018-07-15T06:57:38.457Z,8.27
2018-07-15T07:00:07.882Z,7.97
2018-07-15T07:02:36.269Z,8.17
2018-07-15T07:05:04.669Z,10.40
2018-07-15T07:07:33.156Z,8.27
2018-07-15T07:10:01.485Z,6.60
2018-07-15T07:12:29.908Z,6.97
2018-07-15T07:14:58.321Z,6.60
2018-07-15T07:17:26.709Z,6.87
2018-07-15T07:19:55.134Z,6.60
2018-07-15T07:22:23.550Z,7.07
2018-07-15T07:24:51.907Z,6.87
2018-07-15T07:27:20.317Z,5.57
2018-07-15T07:29:48.671Z,6.27
2018-07-15T07:32:17.116Z,6.10
2018-07-15T07:34:45.490Z,6.00
2018-07-15T07:37:13.895Z,5.43
2018-07-15T07:39:42.434Z,5.47
2018-07-15T07:42:10.850Z,6.40
2018-07-15T07:44:39.332Z,4.93
2018-07-15T07:47:07.750Z,5.90
2018-07-15T07:49:36.113Z,5.87
2018-07-15T07:52:04.501Z,4.90
2018-07-15T07:54:32.877Z,4.50
2018-07-15T07:57:01.278Z,4.73
2018-07-15T07:59:29.713Z,4.70
2018-07-15T08:01:58.140Z,5.00
2018-07-15T08:04:26.516Z,4.57
2018-07-15T08:06:54.898Z,3.83
2018-07-15T08:09:23.263Z,2.00
2018-07-15T08:11:51.673Z,3.20
2018-07-15T08:14:20.041Z,4.17
2018-07-15T08:19:11.170Z,4.40
2018-07-15T08:21:39.558Z,3.87
2018-07-15T08:24:08.490Z,4.23
2018-07-15T08:26:36.881Z,2.30
2018-07-15T08:29:05.396Z,2.10
2018-07-15T08:31:33.782Z,2.90
2018-07-15T08:34:02.217Z,3.00
2018-07-15T08:36:30.618Z,3.13
2018-07-15T08:38:59.363Z,2.87
2018-07-15T08:41:27.792Z,3.20
2018-07-15T08:43:56.178Z,3.10
2018-07-15T08:46:24.602Z,3.20
2018-07-15T08:48:53.330Z,3.03
2018-07-15T08:51:21.990Z,3.57
2018-07-15T08:53:50.406Z,3.87
2018-07-15T08:56:18.791Z,3.70
2018-07-15T08:58:47.180Z,4.10
2018-07-15T09:01:15.576Z,4.67
2018-07-15T09:03:43.997Z,3.73
2018-07-15T09:06:12.599Z,4.43
2018-07-15T09:08:41.183Z,4.20
2018-07-15T09:11:09.610Z,4.57
2018-07-15T09:13:37.716Z,4.30
2018-07-15T09:16:06.245Z,4.37
2018-07-15T09:18:34.658Z,4.43
2018-07-15T09:21:03.053Z,4.60
2018-07-15T09:23:31.839Z,4.30
2018-07-15T09:26:00.210Z,3.77
2018-07-15T09:28:28.586Z,3.73
2018-07-15T09:30:56.934Z,4.10
2018-07-15T09:33:25.430Z,3.83
2018-07-15T09:35:53.771Z,4.50
2018-07-15T09:38:22.146Z,3.90
2018-07-15T09:40:50.505Z,3.90
2018-07-15T09:43:18.877Z,3.30
2018-07-15T09:45:47.254Z,3.90
2018-07-15T09:48:15.687Z,3.20
2018-07-15T09:50:44.110Z,3.33
2018-07-15T09:53:12.501Z,5.10
2018-07-15T09:55:40.890Z,2.90
2018-07-15T09:58:09.312Z,2.80
2018-07-15T10:00:43.054Z,3.00
2018-07-15T10:03:11.446Z,2.80
2018-07-15T10:05:39.814Z,2.50
2018-07-15T10:08:08.205Z,2.93
2018-07-15T10:10:36.586Z,3.20
2018-07-15T10:13:04.982Z,3.83
2018-07-15T10:15:33.353Z,3.40
2018-07-15T10:18:01.750Z,2.57
2018-07-15T10:20:30.137Z,2.00
2018-07-15T10:22:58.513Z,2.63
2018-07-15T10:25:26.905Z,2.40
2018-07-15T10:27:55.314Z,2.00
2018-07-15T10:30:23.702Z,1.97
2018-07-15T10:32:52.442Z,2.50
2018-07-15T10:35:20.813Z,2.27
2018-07-15T10:37:49.265Z,2.60
2018-07-15T10:40:17.638Z,3.30
2018-07-15T10:42:46.021Z,1.77
2018-07-15T10:45:14.394Z,2.37
2018-07-15T10:47:42.878Z,1.87
2018-07-15T10:50:11.286Z,2.57
2018-07-15T10:52:39.677Z,2.07
2018-07-15T10:55:08.587Z,2.20
2018-07-15T10:57:37.109Z,1.60
2018-07-15T11:00:05.893Z,1.70
2018-07-15T11:02:34.238Z,2.10
2018-07-15T11:05:02.667Z,1.90
2018-07-15T11:07:31.070Z,1.93
2018-07-15T11:09:59.474Z,1.90
2018-07-15T11:12:27.818Z,2.10
2018-07-15T11:14:56.190Z,2.10
2018-07-15T11:17:24.545Z,2.27
2018-07-15T11:19:52.905Z,2.10
2018-07-15T11:22:21.581Z,2.40
2018-07-15T11:24:50.013Z,2.80
2018-07-15T11:27:18.383Z,2.20
2018-07-15T11:29:46.779Z,2.13
2018-07-15T11:32:15.139Z,2.80
2018-07-15T11:34:43.634Z,2.77
2018-07-15T11:37:12.005Z,2.73
2018-07-15T11:39:40.393Z,2.10
2018-07-15T11:42:08.738Z,2.20
2018-07-15T11:44:37.193Z,2.87
2018-07-15T11:47:05.714Z,2.73
2018-07-15T11:49:34.090Z,2.87
2018-07-15T11:52:02.442Z,2.27
2018-07-15T11:54:30.614Z,3.60
2018-07-15T11:56:58.938Z,2.10
2018-07-15T11:59:27.357Z,1.97
2018-07-15T12:01:55.937Z,4.03
2018-07-15T12:04:24.285Z,2.03
2018-07-15T12:06:52.658Z,2.17
2018-07-15T12:09:21.042Z,2.27
2018-07-15T12:11:49.410Z,2.63
2018-07-15T12:14:17.881Z,2.20
2018-07-15T12:16:46.262Z,2.07
2018-07-15T12:19:14.677Z,2.23
2018-07-15T12:21:43.054Z,2.27
2018-07-15T12:24:11.426Z,2.57
2018-07-15T12:26:39.805Z,3.03
2018-07-15T12:29:08.445Z,2.23
2018-07-15T12:31:36.873Z,2.30
2018-07-15T12:34:05.253Z,2.63
2018-07-15T12:36:33.653Z,3.80
2018-07-15T12:39:02.017Z,1.87
2018-07-15T12:41:30.425Z,2.00
2018-07-15T12:43:58.793Z,2.10
2018-07-15T12:46:27.205Z,2.10
2018-07-15T12:48:55.569Z,2.20
2018-07-15T12:51:23.946Z,2.03
2018-07-15T12:53:52.313Z,2.20
2018-07-15T12:56:20.737Z,2.53
2018-07-15T12:58:49.437Z,3.40
2018-07-15T13:01:17.820Z,2.67
2018-07-15T13:03:46.186Z,2.40
2018-07-15T13:06:14.593Z,2.13
2018-07-15T13:08:42.953Z,2.40
2018-07-15T13:11:11.350Z,2.13
2018-07-15T13:13:39.718Z,2.10
2018-07-15T13:16:08.176Z,1.80
2018-07-15T13:18:36.573Z,2.23
2018-07-15T13:21:04.953Z,2.43
2018-07-15T13:23:33.366Z,3.30
2018-07-15T13:26:01.756Z,2.47
2018-07-15T13:28:30.175Z,2.00
2018-07-15T13:30:58.712Z,4.27
2018-07-15T13:33:27.117Z,2.10
2018-07-15T13:35:55.626Z,2.20
2018-07-15T13:38:24.053Z,2.20
2018-07-15T13:40:52.423Z,2.33
2018-07-15T13:43:20.805Z,1.90
2018-07-15T13:45:49.175Z,2.50
2018-07-15T13:48:17.553Z,2.27
2018-07-15T13:50:45.922Z,2.80
2018-07-15T13:53:14.325Z,1.80
2018-07-15T13:55:42.741Z,4.07
2018-07-15T13:58:11.138Z,2.13
2018-07-15T14:00:39.514Z,6.30
2018-07-15T14:03:07.928Z,2.13
2018-07-15T14:05:36.326Z,2.57
2018-07-15T14:08:04.994Z,4.63
2018-07-15T14:10:33.083Z,2.10
2018-07-15T14:13:01.506Z,2.83
2018-07-15T14:15:29.869Z,2.23
2018-07-15T14:17:58.269Z,1.97
2018-07-15T14:20:26.649Z,1.93
2018-07-15T14:22:55.021Z,2.03
2018-07-15T14:25:23.382Z,1.97
2018-07-15T14:27:51.794Z,2.03
2018-07-15T14:30:20.133Z,3.80
2018-07-15T14:32:48.494Z,2.80
2018-07-15T14:35:16.834Z,1.50
2018-07-15T14:37:45.214Z,1.87
2018-07-15T14:40:13.574Z,2.60
2018-07-15T14:42:41.990Z,2.10
2018-07-15T14:45:10.369Z,2.70
2018-07-15T14:47:38.738Z,1.70
2018-07-15T14:50:07.202Z,2.07
2018-07-15T14:52:35.821Z,1.87
2018-07-15T14:55:04.290Z,1.80
2018-07-15T14:57:32.681Z,1.90
2018-07-15T15:00:01.080Z,2.10
2018-07-15T15:02:29.205Z,2.40
2018-07-15T15:04:57.557Z,1.70
2018-07-15T15:07:25.924Z,1.50
2018-07-15T15:09:54.270Z,3.57
2018-07-15T15:12:22.645Z,1.60
2018-07-15T15:14:51.193Z,1.67
2018-07-15T15:17:19.570Z,1.50
2018-07-15T15:19:47.930Z,1.43
2018-07-15T15:22:16.362Z,1.40
2018-07-15T15:24:44.734Z,1.50
2018-07-15T15:27:13.242Z,1.70
2018-07-15T15:29:41.582Z,2.43
2018-07-15T15:32:09.986Z,2.10
2018-07-15T15:34:38.342Z,2.10
2018-07-15T15:37:06.737Z,1.60
2018-07-15T15:39:35.098Z,1.30
2018-07-15T15:42:03.689Z,1.57
2018-07-15T15:44:32.093Z,2.20
2018-07-15T15:47:00.457Z,3.57
2018-07-15T15:49:28.869Z,2.33
2018-07-15T15:51:57.245Z,1.80
2018-07-15T15:54:25.662Z,1.80
2018-07-15T15:56:54.053Z,2.37
2018-07-15T15:59:22.433Z,1.67
2018-07-15T16:01:50.813Z,1.80
2018-07-15T16:04:19.253Z,1.40
2018-07-15T16:06:47.651Z,3.13
2018-07-15T16:09:16.158Z,2.50
2018-07-15T16:11:44.526Z,1.77
2018-07-15T16:14:12.905Z,2.10
2018-07-15T16:16:41.303Z,1.90
2018-07-15T16:19:09.708Z,1.93
2018-07-15T16:21:38.088Z,1.47
2018-07-15T16:24:06.686Z,1.70
2018-07-15T16:26:35.053Z,3.00
2018-07-15T16:29:03.469Z,1.80
2018-07-15T16:31:31.957Z,1.80
2018-07-15T16:34:00.341Z,2.40
2018-07-15T16:36:28.801Z,1.90
2018-07-15T16:38:57.205Z,1.20
2018-07-15T16:41:25.561Z,3.27
2018-07-15T16:43:53.982Z,1.80
2018-07-15T16:46:22.373Z,1.67
2018-07-15T16:48:50.754Z,1.50
2018-07-15T16:51:19.113Z,1.53
2018-07-15T16:53:47.579Z,1.70
2018-07-15T16:56:16.035Z,1.40
2018-07-15T16:58:44.424Z,1.40
2018-07-15T17:01:12.795Z,1.83
2018-07-15T17:03:41.185Z,1.93
2018-07-15T17:06:09.591Z,1.17
2018-07-15T17:08:38.047Z,1.23
2018-07-15T17:11:06.740Z,2.20
2018-07-15T17:13:35.366Z,1.40
2018-07-15T17:16:03.924Z,1.47
2018-07-15T17:18:32.311Z,1.40
2018-07-15T17:21:00.690Z,1.30
2018-07-15T17:23:29.190Z,1.07
2018-07-15T17:25:57.601Z,1.23
2018-07-15T17:28:25.993Z,1.83
2018-07-15T17:30:54.473Z,1.20
2018-07-15T17:33:23.022Z,1.30
2018-07-15T17:35:51.394Z,1.50
2018-07-15T17:38:19.801Z,1.23
2018-07-15T17:40:48.201Z,3.87
2018-07-15T17:43:16.662Z,0.90
2018-07-15T17:45:45.097Z,2.27
2018-07-15T17:48:13.474Z,0.97
2018-07-15T17:50:41.997Z,1.10
2018-07-15T17:53:10.462Z,0.87
2018-07-15T17:55:38.861Z,1.00
2018-07-15T17:58:07.230Z,2.60
2018-07-15T18:00:35.606Z,2.37
2018-07-15T18:03:03.978Z,1.57
2018-07-15T18:05:32.402Z,1.33
2018-07-15T18:08:00.806Z,1.10
2018-07-15T18:10:29.712Z,1.60
2018-07-15T18:12:58.094Z,1.50
2018-07-15T18:15:26.501Z,0.93
2018-07-15T18:17:54.940Z,1.00
2018-07-15T18:20:23.409Z,0.80
2018-07-15T18:22:51.786Z,1.77
2018-07-15T18:25:20.180Z,0.90
2018-07-15T18:27:48.547Z,1.73
2018-07-15T18:30:16.971Z,1.10
2018-07-15T18:32:45.346Z,1.00
2018-07-15T18:35:13.757Z,1.50
2018-07-15T18:37:42.174Z,1.03
2018-07-15T18:40:10.572Z,0.83
2018-07-15T18:42:38.967Z,1.40
2018-07-15T18:45:07.515Z,3.33
2018-07-15T18:47:35.733Z,1.33
2018-07-15T18:50:04.189Z,0.97
2018-07-15T18:52:32.565Z,0.73
2018-07-15T18:55:01.037Z,1.83
2018-07-15T18:57:29.441Z,1.43
2018-07-15T18:59:57.890Z,1.00
2018-07-15T19:02:26.258Z,0.90
2018-07-15T19:04:54.682Z,2.40
2018-07-15T19:07:23.077Z,1.33
2018-07-15T19:09:51.446Z,1.57
2018-07-15T19:12:20.591Z,2.30
2018-07-15T19:14:50.087Z,1.40
2018-07-15T19:17:18.865Z,0.93
2018-07-15T19:19:47.349Z,1.20
2018-07-15T19:22:16.634Z,2.90
2018-07-15T19:24:45.484Z,1.57
2018-07-15T19:27:13.830Z,2.00
2018-07-15T19:29:42.230Z,1.20
2018-07-15T19:32:10.729Z,1.50
2018-07-15T19:34:39.098Z,1.10
2018-07-15T19:37:07.467Z,4.10
2018-07-15T19:39:35.953Z,1.33
2018-07-15T19:42:04.339Z,1.87
2018-07-15T19:44:32.745Z,0.90
2018-07-15T19:47:01.242Z,2.33
2018-07-15T19:49:29.595Z,1.77
2018-07-15T19:51:57.973Z,1.90
2018-07-15T19:54:26.421Z,1.20
2018-07-15T19:56:54.814Z,0.93
2018-07-15T19:59:23.190Z,1.47
2018-07-15T20:01:51.633Z,4.73
2018-07-15T20:04:20.009Z,2.00
2018-07-15T20:06:48.542Z,1.20
2018-07-15T20:09:16.911Z,0.77
2018-07-15T20:11:45.289Z,2.93
2018-07-15T20:14:13.692Z,0.97
2018-07-15T20:16:42.080Z,0.80
2018-07-15T20:19:10.449Z,1.10
2018-07-15T20:21:39.005Z,0.87
2018-07-15T20:24:07.378Z,1.17
2018-07-15T20:26:35.797Z,1.43
2018-07-15T20:29:04.233Z,0.83
2018-07-15T20:31:32.666Z,0.70
2018-07-15T20:34:01.131Z,1.10
2018-07-15T20:36:29.562Z,1.83
2018-07-15T20:38:57.942Z,1.10
2018-07-15T20:41:26.360Z,2.20
2018-07-15T20:43:54.723Z,3.50
2018-07-15T20:46:23.153Z,2.60
2018-07-15T20:48:51.555Z,1.37
2018-07-15T20:51:19.942Z,1.00
2018-07-15T20:53:48.318Z,2.30
2018-07-15T20:56:16.752Z,1.20
2018-07-15T20:58:45.070Z,1.30
2018-07-15T21:01:13.460Z,3.17
2018-07-15T21:03:41.857Z,1.00
2018-07-15T21:06:10.236Z,3.17
2018-07-15T21:08:38.585Z,2.97
2018-07-15T21:11:06.957Z,0.80
2018-07-15T21:13:35.356Z,1.57
2018-07-15T21:16:03.766Z,0.97
2018-07-15T21:18:32.137Z,1.47
2018-07-15T21:21:00.505Z,0.93
2018-07-15T21:23:28.870Z,1.30
2018-07-15T21:25:57.286Z,2.20
2018-07-15T21:28:25.650Z,1.20
2018-07-15T21:30:54.049Z,0.97
2018-07-15T21:33:22.401Z,1.30
2018-07-15T21:35:50.765Z,1.00
2018-07-15T21:38:19.129Z,1.53
2018-07-15T21:40:47.538Z,1.70
2018-07-15T21:43:15.881Z,1.33
2018-07-15T21:45:44.242Z,1.43
2018-07-15T21:48:12.733Z,1.53
2018-07-15T21:50:41.101Z,1.23
2018-07-15T21:53:09.469Z,1.07
2018-07-15T21:55:37.850Z,1.27
2018-07-15T21:58:06.277Z,1.30
2018-07-15T22:00:34.675Z,0.90
2018-07-15T22:03:03.091Z,1.73
2018-07-15T22:05:31.477Z,1.43
2018-07-15T22:08:11.228Z,1.40
2018-07-15T22:10:43.312Z,1.40
2018-07-15T22:13:11.650Z,2.10
2018-07-15T22:15:40.201Z,0.90
2018-07-15T22:18:08.653Z,0.83
2018-07-15T22:20:37.470Z,1.27
2018-07-15T22:23:06.301Z,2.20
2018-07-15T22:25:34.726Z,0.80
2018-07-15T22:28:03.417Z,0.87
2018-07-15T22:30:31.830Z,2.30
2018-07-15T22:33:00.234Z,2.33
2018-07-15T22:35:28.621Z,1.23
2018-07-15T22:37:57.045Z,0.97
2018-07-15T22:40:25.538Z,2.00
2018-07-15T22:42:53.924Z,1.10
2018-07-15T22:45:22.328Z,2.73
2018-07-15T22:47:50.730Z,3.30
2018-07-15T22:50:19.101Z,2.23
2018-07-15T22:52:47.493Z,1.00
2018-07-15T22:55:15.878Z,1.70
2018-07-15T22:57:44.247Z,1.70
2018-07-15T23:00:12.690Z,1.80
2018-07-15T23:02:41.058Z,1.00
2018-07-15T23:05:48.295Z,1.43
2018-07-15T23:08:16.655Z,1.60
2018-07-15T23:10:45.023Z,1.60
2018-07-15T23:13:13.939Z,1.10
2018-07-15T23:15:42.722Z,1.20
2018-07-15T23:18:11.094Z,1.03
2018-07-15T23:20:40.250Z,2.17
2018-07-15T23:23:09.390Z,1.87
2018-07-15T23:25:37.787Z,0.80
2018-07-15T23:28:07.022Z,2.17
2018-07-15T23:30:36.081Z,1.77
2018-07-15T23:33:04.964Z,1.90
2018-07-15T23:35:33.545Z,2.23
2018-07-15T23:38:01.905Z,1.33
2018-07-15T23:40:30.277Z,1.47
2018-07-15T23:42:59.290Z,2.50
2018-07-15T23:45:28.598Z,1.73
2018-07-15T23:47:57.329Z,2.30
2018-07-15T23:50:25.933Z,1.17
2018-07-15T23:52:54.546Z,2.33
2018-07-15T23:55:23.138Z,1.97
2018-07-15T23:57:52.171Z,1.13
